Tor Futura — OZZE2 — position and weather

sailwx.info

Track history (hours):
 
Tides and Currents Weather Stations Pressure Air Temp Water Temp Dewpoint Dewpoint Depression Visibility Wind Speed Wind Dir Waves Ship Positions

Tor Futura

Last reported at 2016-Feb-06 02:33 UTC. Time now 2016-Feb-06 02:54 UTC.
Position N 51°21' E 003°11'.

Length 183.1 m; beam 25.2 m; draft 7.8 m.

Type: Cargo ship. MMSI: 219927000.

Date/timePositionNaut miles runAvg speedWind from/ knotsBaromVisibWave heightAir tempDewpointWater temp
2016-Feb-06 02:33N 51°21' E 003°11'9 8.6
2016-Feb-06 01:33N 51°23' E 002°57'9 9.0
2016-Feb-06 00:33N 51°28' E 002°45'1514.6
2016-Feb-05 23:33N 51°42' E 002°43'5116.1
2016-Feb-05 20:25N 52°28' E 002°07'1517.5
2016-Feb-05 19:33N 52°42' E 001°57'1818.5
2016-Feb-05 18:34N 52°56' E 001°37'2019.9
2016-Feb-05 17:34N 53°12' E 001°18'5819.3
2016-Feb-05 14:34N 54°00' E 000°24'2019.7
2016-Feb-05 13:34N 54°17' E 000°05'2019.8
2016-Feb-05 12:33N 54°33' W 000°14'2019.8
2016-Feb-05 11:33N 54°50' W 000°33'1919.4
2016-Feb-05 10:33N 55°05' W 000°52'4719.0
2016-Feb-05 08:04N 55°44' W 001°41'1019.2
2016-Feb-05 07:33N 55°50' W 001°54'1919.2
2016-Feb-05 06:34N 56°01' W 002°22'1818.2
2016-Feb-05 05:34N 56°04' W 002°54'1616.0
2016-Feb-05 04:33N 56°00' W 003°22'2 2.3
2016-Feb-05 03:32N 56°01' W 003°26'0 0.0
2016-Feb-05 02:23N 56°01' W 003°26'0 0.0
2016-Feb-05 01:32N 56°01' W 003°26'0 0.0
2016-Feb-05 00:29N 56°01' W 003°26'0 0.0
2016-Feb-04 23:29N 56°01' W 003°26'3 3.0
2016-Feb-04 22:33N 56°01' W 003°22'1514.6
2016-Feb-04 21:33N 56°05' W 002°56'1817.5
2016-Feb-04 20:33N 56°02' W 002°26'1918.8
2016-Feb-04 19:33N 55°51' W 001°58'6019.2
2016-Feb-04 16:25N 55°04' W 000°51'1618.7
2016-Feb-04 15:33N 54°51' W 000°35'1818.1
2016-Feb-04 14:33N 54°36' W 000°17'1717.4
2016-Feb-04 13:33N 54°22' W 000°00'1716.7
2016-Feb-04 12:33N 54°08' E 000°16'1716.6
2016-Feb-04 11:33N 53°54' E 000°32'3517.1
2016-Feb-04 09:31N 53°25' E 001°05'1818.2
2016-Feb-04 08:33N 53°10' E 001°20'1818.2
2016-Feb-04 07:33N 52°56' E 001°38'1818.3
2016-Feb-04 06:33N 52°41' E 001°57'8416.8
2016-Feb-04 01:34N 51°22' E 002°42'1615.7
2016-Feb-04 00:33N 51°24' E 003°07'3 0.6
2016-Feb-03 19:25N 51°21' E 003°11'1 1.3
2016-Feb-03 18:33N 51°22' E 003°11'1110.7
2016-Feb-03 17:33N 51°22' E 002°54'9 9.1
2016-Feb-03 16:32N 51°28' E 002°43'5316.0
2016-Feb-03 13:13N 52°18' E 002°15'1217.4
2016-Feb-03 12:34N 52°29' E 002°07'1717.1
2016-Feb-03 11:33N 52°44' E 001°55'1716.9
2016-Feb-03 10:33N 52°57' E 001°36'1716.7
2016-Feb-03 09:33N 53°10' E 001°20'5117.0
2016-Feb-03 06:32N 53°54' E 000°33'1717.7
2016-Feb-03 05:33N 54°08' E 000°16'1817.7
2016-Feb-03 04:33N 54°22' W 000°01'1817.7
2016-Feb-03 03:33N 54°37' W 000°18'1818.0
2016-Feb-03 02:33N 54°52' W 000°35'1918.0
2016-Feb-03 01:28N 55°08' W 000°55'1718.4
2016-Feb-03 00:33N 55°22' W 001°12'2518.9
2016-Feb-02 23:13N 55°42' W 001°38'1319.3
2016-Feb-02 22:33N 55°51' W 001°55'1919.4
2016-Feb-02 21:33N 56°01' W 002°24'1818.1
2016-Feb-02 20:33N 56°04' W 002°56'1514.7
2016-Feb-02 19:33N 56°01' W 003°22'3 2.4
2016-Feb-02 18:28N 56°01' W 003°26'0 0.0
2016-Feb-02 17:31N 56°01' W 003°26'0 0.0
2016-Feb-02 16:31N 56°01' W 003°26'0 0.0
2016-Feb-02 15:31N 56°01' W 003°26'0 0.0
2016-Feb-02 14:31N 56°01' W 003°26'0 0.0
2016-Feb-02 13:31N 56°01' W 003°26'0 0.0
2016-Feb-02 12:31N 56°01' W 003°26'0 0.0
2016-Feb-02 11:28N 56°01' W 003°26'0 0.0
2016-Feb-02 10:31N 56°01' W 003°26'0 0.0
2016-Feb-02 09:31N 56°01' W 003°26'0 0.0
2016-Feb-02 08:28N 56°01' W 003°26'0 0.0
2016-Feb-02 07:31N 56°01' W 003°26'0 0.0
2016-Feb-02 06:31N 56°01' W 003°26'0 0.0
2016-Feb-02 05:31N 56°01' W 003°26'0 0.0
2016-Feb-02 04:31N 56°01' W 003°26'0 0.0
2016-Feb-02 03:31N 56°01' W 003°26'0 0.0
2016-Feb-02 02:31N 56°01' W 003°26'0 0.0
2016-Feb-02 01:31N 56°01' W 003°26'0 0.0
2016-Feb-02 00:31N 56°01' W 003°26'0 0.0
2016-Feb-01 23:28N 56°01' W 003°26'0 0.0
2016-Feb-01 22:31N 56°01' W 003°26'0 0.0
2016-Feb-01 21:31N 56°01' W 003°26'0 0.0
2016-Feb-01 20:28N 56°01' W 003°26'0 0.0
2016-Feb-01 19:31N 56°01' W 003°26'0 0.0
2016-Feb-01 18:31N 56°01' W 003°26'0 0.0
2016-Feb-01 17:31N 56°01' W 003°26'0 0.0
2016-Feb-01 16:31N 56°01' W 003°26'0 0.0
2016-Feb-01 15:31N 56°01' W 003°26'0 0.0
2016-Feb-01 14:28N 56°01' W 003°26'0 0.0
2016-Feb-01 13:31N 56°01' W 003°26'0 0.0
2016-Feb-01 12:31N 56°01' W 003°26'0 0.0
2016-Feb-01 11:31N 56°01' W 003°26'0 0.0
2016-Feb-01 10:31N 56°01' W 003°26'0 0.0
2016-Feb-01 09:31N 56°01' W 003°26'0 0.0
2016-Feb-01 08:31N 56°01' W 003°26'0 0.0
2016-Feb-01 07:31N 56°01' W 003°26'0 0.0
2016-Feb-01 06:31N 56°01' W 003°26'0 0.0
2016-Feb-01 05:31N 56°01' W 003°26'0 0.0
2016-Feb-01 04:31N 56°01' W 003°26'0 0.0
2016-Feb-01 03:28N 56°01' W 003°26'0 0.0
2016-Feb-01 02:31N 56°01' W 003°26'0 0.0
2016-Feb-01 01:31N 56°01' W 003°26'0 0.0
2016-Feb-01 00:28N 56°01' W 003°26'0 0.0
2016-Jan-31 23:28N 56°01' W 003°26'0 0.0
2016-Jan-31 22:28N 56°01' W 003°26'0 0.0
2016-Jan-31 21:31N 56°01' W 003°26'6 1.2
2016-Jan-31 16:33N 56°02' W 003°15'1716.6
2016-Jan-31 15:33N 56°06' W 002°47'1818.4
2016-Jan-31 14:33N 55°59' W 002°16'1919.2
2016-Jan-31 13:33N 55°48' W 001°47'3919.2
2016-Jan-31 11:33N 55°17' W 001°07'1918.8
2016-Jan-31 10:33N 55°02' W 000°47'1818.5
2016-Jan-31 09:33N 54°47' W 000°29'1818.1
2016-Jan-31 08:33N 54°32' W 000°11'1817.9
2016-Jan-31 07:33N 54°17' E 000°06'1817.9
2016-Jan-31 06:33N 54°03' E 000°23'4118.3
2016-Jan-31 04:20N 53°29' E 001°02'1918.7
2016-Jan-31 03:19N 53°13' E 001°19'1418.2
2016-Jan-31 02:33N 53°01' E 001°30'1717.1
2016-Jan-31 01:33N 52°49' E 001°50'1616.1
2016-Jan-31 00:33N 52°34' E 002°01'1716.5
2016-Jan-30 23:33N 52°19' E 002°14'5317.0
2016-Jan-30 20:26N 51°30' E 002°46'8 9.6
2016-Jan-30 19:33N 51°23' E 002°52'11 9.9
2016-Jan-30 18:24N 51°21' E 003°11'0 0.0
2016-Jan-30 17:30N 51°21' E 003°11'0 0.0
2016-Jan-30 16:30N 51°21' E 003°11'0 0.0
2016-Jan-30 15:27N 51°21' E 003°11'0 0.0
2016-Jan-30 14:27N 51°21' E 003°11'0 0.0
2016-Jan-30 13:25N 51°21' E 003°11'1 0.7
2016-Jan-30 12:33N 51°21' E 003°11'1212.1
2016-Jan-30 11:34N 51°22' E 002°52'7 7.0
2016-Jan-30 10:33N 51°25' E 002°42'8 8.2
2016-Jan-30 09:33N 51°33' E 002°42'6115.3
2016-Jan-30 05:34N 52°30' E 002°06'1616.3
2016-Jan-30 04:34N 52°44' E 001°54'1817.9
2016-Jan-30 03:33N 52°57' E 001°34'1818.4
2016-Jan-30 02:33N 53°12' E 001°16'5418.0
2016-Jan-29 23:33N 53°58' E 000°28'1919.0
2016-Jan-29 22:33N 54°14' E 000°10'1919.3
2016-Jan-29 21:33N 54°30' W 000°10'2019.5
2016-Jan-29 20:33N 54°46' W 000°29'2019.3
2016-Jan-29 19:32N 55°02' W 000°47'6320.1
2016-Jan-29 16:25N 55°51' W 001°57'1719.9
2016-Jan-29 15:33N 56°01' W 002°22'1818.5
2016-Jan-29 14:33N 56°04' W 002°55'1615.6
2016-Jan-29 13:33N 56°01' W 003°22'3 2.7
2016-Jan-29 12:33N 56°01' W 003°26'0 0.0
2016-Jan-29 11:33N 56°01' W 003°26'0 0.0
2016-Jan-29 10:30N 56°01' W 003°26'0 0.0
2016-Jan-29 09:33N 56°01' W 003°26'0 0.0
2016-Jan-29 08:33N 56°01' W 003°26'0 0.0
2016-Jan-29 07:30N 56°01' W 003°26'0 0.0
2016-Jan-29 06:33N 56°01' W 003°26'0 0.2
2016-Jan-29 05:32N 56°01' W 003°26'8 8.2
2016-Jan-29 04:33N 56°02' W 003°12'1111.4
2016-Jan-29 03:33N 56°05' W 002°52'1110.6
2016-Jan-29 02:33N 56°04' W 002°33'1312.7
2016-Jan-29 01:33N 55°58' W 002°14'8015.9
2016-Jan-28 20:33N 54°57' W 000°43'1615.7
2016-Jan-28 19:34N 54°45' W 000°27'1515.1
2016-Jan-28 18:34N 54°32' W 000°12'1515.3
2016-Jan-28 17:34N 54°19' E 000°03'1615.6
2016-Jan-28 16:34N 54°07' E 000°18'5217.2
2016-Jan-28 13:33N 53°24' E 001°07'1717.3
2016-Jan-28 12:33N 53°09' E 001°23'1616.4
2016-Jan-28 11:34N 52°56' E 001°38'1515.2
2016-Jan-28 10:34N 52°45' E 001°54'1616.3
2016-Jan-28 09:34N 52°30' E 002°05'7217.9
2016-Jan-28 05:33N 51°22' E 002°45'1413.8
2016-Jan-28 04:33N 51°24' E 003°07'3 3.4
2016-Jan-28 03:34N 51°21' E 003°11'0 0.0
2016-Jan-28 02:34N 51°21' E 003°11'0 0.0
2016-Jan-28 01:31N 51°21' E 003°11'0 0.0
2016-Jan-28 00:31N 51°21' E 003°11'1 0.5
2016-Jan-27 23:33N 51°21' E 003°11'1110.6
2016-Jan-27 22:32N 51°22' E 002°54'9 8.6
2016-Jan-27 21:32N 51°26' E 002°42'6716.8
2016-Jan-27 17:33N 52°29' E 002°06'1515.0
2016-Jan-27 16:33N 52°43' E 001°56'1515.4
2016-Jan-27 15:33N 52°54' E 001°39'1615.9
2016-Jan-27 14:33N 53°07' E 001°24'1815.8
2016-Jan-27 13:26N 53°22' E 001°08'4515.8
2016-Jan-27 10:33N 54°00' E 000°25'1717.5
2016-Jan-27 09:33N 54°15' E 000°08'1818.1
2016-Jan-27 08:33N 54°29' W 000°09'1918.8
2016-Jan-27 07:33N 54°45' W 000°27'8319.7
2016-Jan-27 03:21N 55°51' W 001°56'1619.7
2016-Jan-27 02:33N 55°60' W 002°19'  
Track history (hours):
 
Tides and Currents Weather Stations Pressure Air Temp Water Temp Dewpoint Dewpoint Depression Visibility Wind Speed Wind Dir Waves Ship Positions

Tor Futura

Last reported at 2016-Feb-06 02:33 UTC. Time now 2016-Feb-06 02:54 UTC.
Position N 51°21' E 003°11'.

Length 183.1 m; beam 25.2 m; draft 7.8 m.

Type: Cargo ship. MMSI: 219927000.

Date/timePositionNaut miles runAvg speedWind from/ knotsBaromVisibWave heightAir tempDewpointWater temp
2016-Feb-06 02:33N 51°21' E 003°11'9 8.6
2016-Feb-06 01:33N 51°23' E 002°57'9 9.0
2016-Feb-06 00:33N 51°28' E 002°45'1514.6
2016-Feb-05 23:33N 51°42' E 002°43'5116.1
2016-Feb-05 20:25N 52°28' E 002°07'1517.5
2016-Feb-05 19:33N 52°42' E 001°57'1818.5
2016-Feb-05 18:34N 52°56' E 001°37'2019.9
2016-Feb-05 17:34N 53°12' E 001°18'5819.3
2016-Feb-05 14:34N 54°00' E 000°24'2019.7
2016-Feb-05 13:34N 54°17' E 000°05'2019.8
2016-Feb-05 12:33N 54°33' W 000°14'2019.8
2016-Feb-05 11:33N 54°50' W 000°33'1919.4
2016-Feb-05 10:33N 55°05' W 000°52'4719.0
2016-Feb-05 08:04N 55°44' W 001°41'1019.2
2016-Feb-05 07:33N 55°50' W 001°54'1919.2
2016-Feb-05 06:34N 56°01' W 002°22'1818.2
2016-Feb-05 05:34N 56°04' W 002°54'1616.0
2016-Feb-05 04:33N 56°00' W 003°22'2 2.3
2016-Feb-05 03:32N 56°01' W 003°26'0 0.0
2016-Feb-05 02:23N 56°01' W 003°26'0 0.0
2016-Feb-05 01:32N 56°01' W 003°26'0 0.0
2016-Feb-05 00:29N 56°01' W 003°26'0 0.0
2016-Feb-04 23:29N 56°01' W 003°26'3 3.0
2016-Feb-04 22:33N 56°01' W 003°22'1514.6
2016-Feb-04 21:33N 56°05' W 002°56'1817.5
2016-Feb-04 20:33N 56°02' W 002°26'1918.8
2016-Feb-04 19:33N 55°51' W 001°58'6019.2
2016-Feb-04 16:25N 55°04' W 000°51'1618.7
2016-Feb-04 15:33N 54°51' W 000°35'1818.1
2016-Feb-04 14:33N 54°36' W 000°17'1717.4
2016-Feb-04 13:33N 54°22' W 000°00'1716.7
2016-Feb-04 12:33N 54°08' E 000°16'1716.6
2016-Feb-04 11:33N 53°54' E 000°32'3517.1
2016-Feb-04 09:31N 53°25' E 001°05'1818.2
2016-Feb-04 08:33N 53°10' E 001°20'1818.2
2016-Feb-04 07:33N 52°56' E 001°38'1818.3
2016-Feb-04 06:33N 52°41' E 001°57'8416.8
2016-Feb-04 01:34N 51°22' E 002°42'1615.7
2016-Feb-04 00:33N 51°24' E 003°07'3 0.6
2016-Feb-03 19:25N 51°21' E 003°11'1 1.3
2016-Feb-03 18:33N 51°22' E 003°11'1110.7
2016-Feb-03 17:33N 51°22' E 002°54'9 9.1
2016-Feb-03 16:32N 51°28' E 002°43'5316.0
2016-Feb-03 13:13N 52°18' E 002°15'1217.4
2016-Feb-03 12:34N 52°29' E 002°07'1717.1
2016-Feb-03 11:33N 52°44' E 001°55'1716.9
2016-Feb-03 10:33N 52°57' E 001°36'1716.7
2016-Feb-03 09:33N 53°10' E 001°20'5117.0
2016-Feb-03 06:32N 53°54' E 000°33'1717.7
2016-Feb-03 05:33N 54°08' E 000°16'1817.7
2016-Feb-03 04:33N 54°22' W 000°01'1817.7
2016-Feb-03 03:33N 54°37' W 000°18'1818.0
2016-Feb-03 02:33N 54°52' W 000°35'1918.0
2016-Feb-03 01:28N 55°08' W 000°55'1718.4
2016-Feb-03 00:33N 55°22' W 001°12'2518.9
2016-Feb-02 23:13N 55°42' W 001°38'1319.3
2016-Feb-02 22:33N 55°51' W 001°55'1919.4
2016-Feb-02 21:33N 56°01' W 002°24'1818.1
2016-Feb-02 20:33N 56°04' W 002°56'1514.7
2016-Feb-02 19:33N 56°01' W 003°22'3 2.4
2016-Feb-02 18:28N 56°01' W 003°26'0 0.0
2016-Feb-02 17:31N 56°01' W 003°26'0 0.0
2016-Feb-02 16:31N 56°01' W 003°26'0 0.0
2016-Feb-02 15:31N 56°01' W 003°26'0 0.0
2016-Feb-02 14:31N 56°01' W 003°26'0 0.0
2016-Feb-02 13:31N 56°01' W 003°26'0 0.0
2016-Feb-02 12:31N 56°01' W 003°26'0 0.0
2016-Feb-02 11:28N 56°01' W 003°26'0 0.0
2016-Feb-02 10:31N 56°01' W 003°26'0 0.0
2016-Feb-02 09:31N 56°01' W 003°26'0 0.0
2016-Feb-02 08:28N 56°01' W 003°26'0 0.0
2016-Feb-02 07:31N 56°01' W 003°26'0 0.0
2016-Feb-02 06:31N 56°01' W 003°26'0 0.0
2016-Feb-02 05:31N 56°01' W 003°26'0 0.0
2016-Feb-02 04:31N 56°01' W 003°26'0 0.0
2016-Feb-02 03:31N 56°01' W 003°26'0 0.0
2016-Feb-02 02:31N 56°01' W 003°26'0 0.0
2016-Feb-02 01:31N 56°01' W 003°26'0 0.0
2016-Feb-02 00:31N 56°01' W 003°26'0 0.0
2016-Feb-01 23:28N 56°01' W 003°26'0 0.0
2016-Feb-01 22:31N 56°01' W 003°26'0 0.0
2016-Feb-01 21:31N 56°01' W 003°26'0 0.0
2016-Feb-01 20:28N 56°01' W 003°26'0 0.0
2016-Feb-01 19:31N 56°01' W 003°26'0 0.0
2016-Feb-01 18:31N 56°01' W 003°26'0 0.0
2016-Feb-01 17:31N 56°01' W 003°26'0 0.0
2016-Feb-01 16:31N 56°01' W 003°26'0 0.0
2016-Feb-01 15:31N 56°01' W 003°26'0 0.0
2016-Feb-01 14:28N 56°01' W 003°26'0 0.0
2016-Feb-01 13:31N 56°01' W 003°26'0 0.0
2016-Feb-01 12:31N 56°01' W 003°26'0 0.0
2016-Feb-01 11:31N 56°01' W 003°26'0 0.0
2016-Feb-01 10:31N 56°01' W 003°26'0 0.0
2016-Feb-01 09:31N 56°01' W 003°26'0 0.0
2016-Feb-01 08:31N 56°01' W 003°26'0 0.0
2016-Feb-01 07:31N 56°01' W 003°26'0 0.0
2016-Feb-01 06:31N 56°01' W 003°26'0 0.0
2016-Feb-01 05:31N 56°01' W 003°26'0 0.0
2016-Feb-01 04:31N 56°01' W 003°26'0 0.0
2016-Feb-01 03:28N 56°01' W 003°26'0 0.0
2016-Feb-01 02:31N 56°01' W 003°26'0 0.0
2016-Feb-01 01:31N 56°01' W 003°26'0 0.0
2016-Feb-01 00:28N 56°01' W 003°26'0 0.0
2016-Jan-31 23:28N 56°01' W 003°26'0 0.0
2016-Jan-31 22:28N 56°01' W 003°26'0 0.0
2016-Jan-31 21:31N 56°01' W 003°26'6 1.2
2016-Jan-31 16:33N 56°02' W 003°15'1716.6
2016-Jan-31 15:33N 56°06' W 002°47'1818.4
2016-Jan-31 14:33N 55°59' W 002°16'1919.2
2016-Jan-31 13:33N 55°48' W 001°47'3919.2
2016-Jan-31 11:33N 55°17' W 001°07'1918.8
2016-Jan-31 10:33N 55°02' W 000°47'1818.5
2016-Jan-31 09:33N 54°47' W 000°29'1818.1
2016-Jan-31 08:33N 54°32' W 000°11'1817.9
2016-Jan-31 07:33N 54°17' E 000°06'1817.9
2016-Jan-31 06:33N 54°03' E 000°23'4118.3
2016-Jan-31 04:20N 53°29' E 001°02'1918.7
2016-Jan-31 03:19N 53°13' E 001°19'1418.2
2016-Jan-31 02:33N 53°01' E 001°30'1717.1
2016-Jan-31 01:33N 52°49' E 001°50'1616.1
2016-Jan-31 00:33N 52°34' E 002°01'1716.5
2016-Jan-30 23:33N 52°19' E 002°14'5317.0
2016-Jan-30 20:26N 51°30' E 002°46'8 9.6
2016-Jan-30 19:33N 51°23' E 002°52'11 9.9
2016-Jan-30 18:24N 51°21' E 003°11'0 0.0
2016-Jan-30 17:30N 51°21' E 003°11'0 0.0
2016-Jan-30 16:30N 51°21' E 003°11'0 0.0
2016-Jan-30 15:27N 51°21' E 003°11'0 0.0
2016-Jan-30 14:27N 51°21' E 003°11'0 0.0
2016-Jan-30 13:25N 51°21' E 003°11'1 0.7
2016-Jan-30 12:33N 51°21' E 003°11'1212.1
2016-Jan-30 11:34N 51°22' E 002°52'7 7.0
2016-Jan-30 10:33N 51°25' E 002°42'8 8.2
2016-Jan-30 09:33N 51°33' E 002°42'6115.3
2016-Jan-30 05:34N 52°30' E 002°06'1616.3
2016-Jan-30 04:34N 52°44' E 001°54'1817.9
2016-Jan-30 03:33N 52°57' E 001°34'1818.4
2016-Jan-30 02:33N 53°12' E 001°16'5418.0
2016-Jan-29 23:33N 53°58' E 000°28'1919.0
2016-Jan-29 22:33N 54°14' E 000°10'1919.3
2016-Jan-29 21:33N 54°30' W 000°10'2019.5
2016-Jan-29 20:33N 54°46' W 000°29'2019.3
2016-Jan-29 19:32N 55°02' W 000°47'6320.1
2016-Jan-29 16:25N 55°51' W 001°57'1719.9
2016-Jan-29 15:33N 56°01' W 002°22'1818.5
2016-Jan-29 14:33N 56°04' W 002°55'1615.6
2016-Jan-29 13:33N 56°01' W 003°22'3 2.7
2016-Jan-29 12:33N 56°01' W 003°26'0 0.0
2016-Jan-29 11:33N 56°01' W 003°26'0 0.0
2016-Jan-29 10:30N 56°01' W 003°26'0 0.0
2016-Jan-29 09:33N 56°01' W 003°26'0 0.0
2016-Jan-29 08:33N 56°01' W 003°26'0 0.0
2016-Jan-29 07:30N 56°01' W 003°26'0 0.0
2016-Jan-29 06:33N 56°01' W 003°26'0 0.2
2016-Jan-29 05:32N 56°01' W 003°26'8 8.2
2016-Jan-29 04:33N 56°02' W 003°12'1111.4
2016-Jan-29 03:33N 56°05' W 002°52'1110.6
2016-Jan-29 02:33N 56°04' W 002°33'1312.7
2016-Jan-29 01:33N 55°58' W 002°14'8015.9
2016-Jan-28 20:33N 54°57' W 000°43'1615.7
2016-Jan-28 19:34N 54°45' W 000°27'1515.1
2016-Jan-28 18:34N 54°32' W 000°12'1515.3
2016-Jan-28 17:34N 54°19' E 000°03'1615.6
2016-Jan-28 16:34N 54°07' E 000°18'5217.2
2016-Jan-28 13:33N 53°24' E 001°07'1717.3
2016-Jan-28 12:33N 53°09' E 001°23'1616.4
2016-Jan-28 11:34N 52°56' E 001°38'1515.2
2016-Jan-28 10:34N 52°45' E 001°54'1616.3
2016-Jan-28 09:34N 52°30' E 002°05'7217.9
2016-Jan-28 05:33N 51°22' E 002°45'1413.8
2016-Jan-28 04:33N 51°24' E 003°07'3 3.4
2016-Jan-28 03:34N 51°21' E 003°11'0 0.0
2016-Jan-28 02:34N 51°21' E 003°11'0 0.0
2016-Jan-28 01:31N 51°21' E 003°11'0 0.0
2016-Jan-28 00:31N 51°21' E 003°11'1 0.5
2016-Jan-27 23:33N 51°21' E 003°11'1110.6
2016-Jan-27 22:32N 51°22' E 002°54'9 8.6
2016-Jan-27 21:32N 51°26' E 002°42'6716.8
2016-Jan-27 17:33N 52°29' E 002°06'1515.0
2016-Jan-27 16:33N 52°43' E 001°56'1515.4
2016-Jan-27 15:33N 52°54' E 001°39'1615.9
2016-Jan-27 14:33N 53°07' E 001°24'1815.8
2016-Jan-27 13:26N 53°22' E 001°08'4515.8
2016-Jan-27 10:33N 54°00' E 000°25'1717.5
2016-Jan-27 09:33N 54°15' E 000°08'1818.1
2016-Jan-27 08:33N 54°29' W 000°09'1918.8
2016-Jan-27 07:33N 54°45' W 000°27'8319.7
2016-Jan-27 03:21N 55°51' W 001°56'1619.7
2016-Jan-27 02:33N 55°60' W 002°19'  

Dump ship's entire track history